Time;durP1;ratioP1;P1;durP2;ratioP2;P2;SDS_P1;SDS_P2;PMS_P1;PMS_P2;Temp;Humidity;BMP_temperature;BMP_pressure;BME280_temperature;BME280_humidity;BME280_pressure;Samples;Min_cycle;Max_cycle;Signal;HPM_P1;HPM_P2
2023/04/16 00:02:18;;;;;;;21.48;9.55;;;7.80;99.90;;;;;;4980608;28;20064;-65
2023/04/16 00:04:44;;;;;;;17.35;8.98;;;7.70;99.90;;;;;;4983189;28;20117;-65
2023/04/16 00:07:09;;;;;;;20.55;7.68;;;7.70;99.90;;;;;;4983125;28;20030;-65
2023/04/16 00:09:35;;;;;;;23.58;9.82;;;7.70;99.90;;;;;;4983349;28;20618;-63
2023/04/16 00:12:00;;;;;;;18.38;8.75;;;7.70;99.90;;;;;;4983672;28;20031;-65
2023/04/16 00:14:26;;;;;;;23.65;9.55;;;7.70;99.90;;;;;;4981332;28;20466;-64
2023/04/16 00:16:52;;;;;;;20.23;11.00;;;7.70;99.90;;;;;;4964741;28;20414;-64
2023/04/16 00:19:17;;;;;;;20.52;10.75;;;7.70;99.90;;;;;;4984669;28;20027;-64
2023/04/16 00:21:43;;;;;;;23.60;11.60;;;7.60;99.90;;;;;;4979975;28;20037;-64
2023/04/16 00:24:08;;;;;;;23.73;10.93;;;7.60;99.90;;;;;;4981164;28;20027;-63
2023/04/16 00:26:34;;;;;;;28.77;11.65;;;7.60;99.90;;;;;;4973114;28;20562;-64
2023/04/16 00:29:00;;;;;;;21.02;10.45;;;7.60;99.90;;;;;;4985349;28;20035;-65
2023/04/16 00:31:31;;;;;;;32.45;12.25;;;7.70;99.90;;;;;;4978892;28;20034;-64
2023/04/16 00:33:58;;;;;;;27.13;13.02;;;7.70;99.90;;;;;;4984582;28;20026;-64
2023/04/16 00:36:24;;;;;;;25.13;13.02;;;7.70;99.90;;;;;;4979998;28;20034;-64
2023/04/16 00:38:50;;;;;;;31.95;13.48;;;7.70;99.90;;;;;;4982114;28;20117;-65
2023/04/16 00:41:16;;;;;;;28.80;13.10;;;7.70;99.90;;;;;;4981588;28;20110;-63
2023/04/16 00:43:41;;;;;;;33.72;16.35;;;7.70;99.90;;;;;;4982728;28;20049;-64
2023/04/16 00:46:08;;;;;;;32.85;16.83;;;7.70;99.90;;;;;;4983858;28;20440;-64
2023/04/16 00:48:36;;;;;;;44.20;18.35;;;7.70;99.90;;;;;;4985108;28;20033;-64
2023/04/16 00:51:05;;;;;;;33.92;16.60;;;7.70;99.90;;;;;;4982763;28;20164;-65
2023/04/16 00:53:31;;;;;;;41.97;20.33;;;7.60;99.90;;;;;;4980578;28;20083;-66
2023/04/16 00:55:57;;;;;;;42.40;21.00;;;7.50;99.90;;;;;;4998408;28;20454;-66
2023/04/16 00:58:23;;;;;;;58.83;23.88;;;7.60;99.90;;;;;;4983157;28;20030;-65
2023/04/16 01:00:49;;;;;;;57.55;24.92;;;7.60;99.90;;;;;;4983067;28;20498;-65
2023/04/16 01:03:15;;;;;;;58.78;25.55;;;7.70;99.90;;;;;;4979969;28;20046;-66
2023/04/16 01:05:41;;;;;;;63.13;24.50;;;7.60;99.90;;;;;;4982561;28;20038;-65
2023/04/16 01:08:17;;;;;;;64.03;27.10;;;7.60;99.90;;;;;;4987022;28;20045;-65
2023/04/16 01:10:43;;;;;;;64.30;26.00;;;7.60;99.90;;;;;;4985271;28;20022;-65
2023/04/16 01:13:08;;;;;;;61.42;27.10;;;7.50;99.90;;;;;;4982766;28;20037;-65
2023/04/16 01:15:34;;;;;;;76.03;29.13;;;7.50;99.90;;;;;;4982732;28;20035;-65
2023/04/16 01:18:00;;;;;;;64.60;28.25;;;7.60;99.90;;;;;;4970842;28;20049;-66
2023/04/16 01:20:25;;;;;;;67.85;28.80;;;7.60;99.90;;;;;;4981545;28;20035;-65
2023/04/16 01:22:51;;;;;;;67.43;28.48;;;7.60;99.90;;;;;;4983249;28;20096;-65
2023/04/16 01:25:16;;;;;;;62.65;27.75;;;7.70;99.90;;;;;;4985603;28;20484;-66
2023/04/16 01:27:42;;;;;;;66.38;27.10;;;7.70;99.90;;;;;;4980203;28;20115;-65
2023/04/16 01:30:08;;;;;;;69.28;27.23;;;7.70;99.90;;;;;;4984823;28;20054;-65
2023/04/16 01:32:34;;;;;;;71.10;29.15;;;7.60;99.90;;;;;;4983510;28;20026;-65
2023/04/16 01:34:59;;;;;;;61.30;26.67;;;7.60;99.90;;;;;;4984123;28;20049;-66
2023/04/16 01:37:25;;;;;;;72.20;29.35;;;7.60;99.90;;;;;;4982717;28;20034;-65
2023/04/16 01:39:51;;;;;;;69.00;28.25;;;7.60;99.90;;;;;;4983383;28;20034;-66
2023/04/16 01:42:17;;;;;;;70.57;26.67;;;7.60;99.90;;;;;;4982433;28;20099;-65
2023/04/16 01:44:42;;;;;;;71.57;28.23;;;7.60;99.90;;;;;;4984374;28;20408;-65
2023/04/16 01:47:08;;;;;;;57.78;26.38;;;7.60;99.90;;;;;;4981964;28;20039;-65
2023/04/16 01:49:33;;;;;;;60.90;25.52;;;7.60;99.90;;;;;;4983150;28;20052;-66
2023/04/16 01:51:59;;;;;;;59.40;25.85;;;7.60;99.90;;;;;;4986318;28;20288;-66
2023/04/16 01:54:25;;;;;;;56.55;24.42;;;7.70;99.90;;;;;;4984303;28;20038;-65
2023/04/16 01:56:50;;;;;;;67.57;25.75;;;7.60;99.90;;;;;;4982263;28;20030;-66
2023/04/16 01:59:16;;;;;;;70.10;28.88;;;7.60;99.90;;;;;;4984082;28;20504;-65
2023/04/16 02:01:42;;;;;;;60.15;25.42;;;7.60;99.90;;;;;;4983591;28;20035;-65
2023/04/16 02:04:08;;;;;;;58.85;24.55;;;7.60;99.90;;;;;;4982719;28;20035;-65
2023/04/16 02:06:34;;;;;;;51.35;24.30;;;7.70;99.90;;;;;;4982204;28;20038;-66
2023/04/16 02:08:59;;;;;;;64.03;25.20;;;7.60;99.90;;;;;;4983277;28;20026;-66
2023/04/16 02:11:25;;;;;;;55.83;23.67;;;7.60;99.90;;;;;;4980634;28;20033;-66
2023/04/16 02:13:50;;;;;;;59.00;24.15;;;7.70;99.90;;;;;;4981790;28;20479;-66
2023/04/16 02:16:16;;;;;;;46.60;22.05;;;7.60;99.90;;;;;;4982398;28;20054;-65
2023/04/16 02:18:42;;;;;;;64.70;23.02;;;7.60;99.90;;;;;;4982390;28;20039;-68
2023/04/16 02:21:07;;;;;;;45.97;22.08;;;7.60;99.90;;;;;;4984631;28;20516;-66
2023/04/16 02:23:33;;;;;;;50.70;23.08;;;7.60;99.90;;;;;;4973847;28;20047;-65
2023/04/16 02:25:59;;;;;;;55.90;23.40;;;7.60;99.90;;;;;;4980861;28;20030;-65
2023/04/16 02:28:25;;;;;;;46.30;20.52;;;7.60;99.90;;;;;;4980322;28;20274;-66
2023/04/16 02:30:50;;;;;;;39.80;20.55;;;7.60;99.90;;;;;;4985137;28;20030;-66
2023/04/16 02:33:16;;;;;;;50.03;20.77;;;7.60;99.90;;;;;;4983688;28;20026;-66
2023/04/16 02:35:42;;;;;;;46.30;20.08;;;7.60;99.90;;;;;;4983495;28;20023;-65
2023/04/16 02:38:07;;;;;;;42.97;20.10;;;7.60;99.90;;;;;;4982694;28;20562;-66
2023/04/16 02:40:33;;;;;;;46.75;20.70;;;7.70;99.90;;;;;;4983063;28;20037;-66
2023/04/16 02:42:59;;;;;;;45.70;20.58;;;7.60;99.90;;;;;;4982080;28;20390;-66
2023/04/16 02:45:24;;;;;;;41.65;19.65;;;7.70;99.90;;;;;;4982564;28;20415;-66
2023/04/16 02:47:50;;;;;;;41.42;18.70;;;7.70;99.90;;;;;;4985081;28;20046;-66
2023/04/16 02:50:16;;;;;;;42.92;18.83;;;7.60;99.90;;;;;;4986211;28;20026;-65
2023/04/16 02:52:42;;;;;;;35.83;17.63;;;7.60;99.90;;;;;;4990403;28;20031;-65
2023/04/16 02:55:09;;;;;;;36.95;19.23;;;7.60;99.90;;;;;;4985130;28;20034;-66
2023/04/16 02:57:35;;;;;;;41.90;18.13;;;7.60;99.90;;;;;;4987065;28;20019;-65
2023/04/16 03:00:00;;;;;;;37.67;17.70;;;7.60;99.90;;;;;;4984967;28;20030;-65
2023/04/16 03:02:26;;;;;;;40.42;18.63;;;7.60;99.90;;;;;;4984816;28;20581;-66
2023/04/16 03:04:53;;;;;;;42.50;17.77;;;7.60;99.90;;;;;;4983750;28;20026;-65
2023/04/16 03:07:18;;;;;;;34.15;17.20;;;7.60;99.90;;;;;;4984419;28;20140;-66
2023/04/16 03:09:44;;;;;;;40.75;18.40;;;7.60;99.90;;;;;;4985617;28;20109;-65
2023/04/16 03:12:09;;;;;;;33.00;16.33;;;7.50;99.90;;;;;;4982802;28;20019;-66
2023/04/16 03:14:35;;;;;;;45.47;18.60;;;7.60;99.90;;;;;;4983666;28;20097;-65
2023/04/16 03:17:01;;;;;;;36.03;14.98;;;7.60;99.90;;;;;;4986103;28;20039;-65
2023/04/16 03:19:26;;;;;;;40.53;18.42;;;7.60;99.90;;;;;;4984034;28;20061;-66
2023/04/16 03:21:52;;;;;;;40.67;17.33;;;7.60;99.90;;;;;;4986524;28;20045;-66
2023/04/16 03:24:17;;;;;;;49.88;18.55;;;7.60;99.90;;;;;;4988900;28;20083;-66
2023/04/16 03:26:43;;;;;;;38.58;19.08;;;7.60;99.90;;;;;;4982062;28;20046;-65
2023/04/16 03:29:08;;;;;;;48.00;20.92;;;7.60;99.90;;;;;;4987662;28;20408;-66
2023/04/16 03:31:34;;;;;;;45.45;20.73;;;7.60;99.90;;;;;;4989865;28;20026;-65
2023/04/16 03:34:00;;;;;;;49.67;22.02;;;7.60;99.90;;;;;;4974644;28;20485;-65
2023/04/16 03:36:28;;;;;;;67.95;23.08;;;7.60;99.90;;;;;;4988829;28;20027;-66
2023/04/16 03:38:54;;;;;;;56.33;23.50;;;7.60;99.90;;;;;;4985572;28;20026;-65
2023/04/16 03:41:20;;;;;;;69.05;24.25;;;7.60;99.90;;;;;;4988624;28;20577;-66
2023/04/16 03:43:46;;;;;;;66.45;26.55;;;7.60;99.90;;;;;;4976178;28;20085;-66
2023/04/16 03:46:11;;;;;;;64.80;27.33;;;7.60;99.90;;;;;;4986256;28;20496;-65
2023/04/16 03:48:37;;;;;;;67.65;26.90;;;7.60;99.90;;;;;;4989707;28;20542;-65
2023/04/16 03:51:03;;;;;;;80.25;28.52;;;7.60;99.90;;;;;;4990521;28;20019;-65
2023/04/16 03:53:28;;;;;;;57.88;28.08;;;7.60;99.90;;;;;;4986545;28;20030;-65
2023/04/16 03:55:54;;;;;;;71.15;28.08;;;7.60;99.90;;;;;;4984700;28;20023;-64
2023/04/16 03:58:20;;;;;;;69.53;28.13;;;7.60;99.90;;;;;;4983262;28;20034;-65
2023/04/16 04:00:46;;;;;;;79.85;28.67;;;7.70;99.90;;;;;;4987923;28;20110;-65
2023/04/16 04:03:12;;;;;;;73.00;29.15;;;7.70;99.90;;;;;;4982887;28;20033;-65
2023/04/16 04:05:41;;;;;;;71.03;30.13;;;7.70;99.90;;;;;;4988591;28;20407;-65
2023/04/16 04:08:07;;;;;;;82.68;29.27;;;7.70;99.90;;;;;;4982560;28;20062;-65
2023/04/16 04:10:34;;;;;;;81.95;31.23;;;7.60;99.90;;;;;;4985854;28;20099;-65
2023/04/16 04:13:01;;;;;;;79.75;30.73;;;7.70;99.90;;;;;;4984099;28;20106;-65
2023/04/16 04:15:27;;;;;;;78.05;32.72;;;7.70;99.90;;;;;;4973353;28;20031;-65
2023/04/16 04:17:52;;;;;;;79.75;31.83;;;7.70;99.90;;;;;;4984409;28;20026;-65
2023/04/16 04:20:18;;;;;;;84.57;31.33;;;7.70;99.90;;;;;;4982971;28;20014;-65
2023/04/16 04:22:43;;;;;;;73.32;29.15;;;7.70;99.90;;;;;;4985927;28;20030;-65
2023/04/16 04:25:09;;;;;;;69.93;27.83;;;7.70;99.90;;;;;;4982686;28;20115;-65
2023/04/16 04:27:35;;;;;;;78.82;26.52;;;7.70;99.90;;;;;;4982703;28;20121;-64
2023/04/16 04:30:03;;;;;;;72.15;27.55;;;7.70;99.90;;;;;;4982069;28;20118;-65
2023/04/16 04:32:29;;;;;;;70.68;25.83;;;7.60;99.90;;;;;;4974221;28;20587;-65
2023/04/16 04:34:54;;;;;;;61.90;26.35;;;7.60;99.90;;;;;;4983640;28;20109;-65
2023/04/16 04:37:20;;;;;;;71.05;26.27;;;7.70;99.90;;;;;;4981555;28;20030;-65
2023/04/16 04:39:45;;;;;;;66.80;26.80;;;7.60;99.90;;;;;;4983844;28;20032;-65
2023/04/16 04:42:11;;;;;;;67.68;25.40;;;7.60;99.90;;;;;;4983534;28;20072;-65
2023/04/16 04:44:36;;;;;;;56.15;25.33;;;7.70;99.90;;;;;;4985015;28;20026;-65
2023/04/16 04:47:02;;;;;;;57.45;25.02;;;7.70;99.90;;;;;;4981778;28;20100;-65
2023/04/16 04:49:29;;;;;;;59.33;24.23;;;7.70;99.90;;;;;;4982422;28;20496;-65
2023/04/16 04:51:54;;;;;;;55.35;23.20;;;7.70;99.90;;;;;;4983137;28;20026;-65
2023/04/16 04:54:20;;;;;;;59.40;24.02;;;7.80;99.90;;;;;;4985754;28;20556;-65
2023/04/16 04:56:46;;;;;;;54.30;23.27;;;7.80;99.90;;;;;;4998820;28;20053;-65
2023/04/16 04:59:11;;;;;;;58.05;25.45;;;7.80;99.90;;;;;;4982122;28;20030;-65
2023/04/16 05:01:37;;;;;;;53.08;23.33;;;7.70;99.90;;;;;;4983779;28;20049;-65
2023/04/16 05:04:03;;;;;;;74.47;25.17;;;7.80;99.90;;;;;;4982206;28;20030;-65
2023/04/16 05:06:28;;;;;;;51.92;22.30;;;7.70;99.90;;;;;;4982542;28;20026;-65
2023/04/16 05:08:54;;;;;;;50.13;21.42;;;7.80;99.90;;;;;;4983445;28;20034;-65
2023/04/16 05:11:20;;;;;;;52.35;21.73;;;7.80;99.90;;;;;;4981199;28;20436;-65
2023/04/16 05:13:45;;;;;;;48.05;21.88;;;7.80;99.90;;;;;;4984453;28;20030;-65
2023/04/16 05:16:11;;;;;;;53.65;21.63;;;7.80;99.90;;;;;;4983226;28;20060;-66
2023/04/16 05:18:36;;;;;;;53.67;23.40;;;7.90;99.90;;;;;;4981737;28;20052;-65
2023/04/16 05:21:02;;;;;;;46.38;21.58;;;7.90;99.90;;;;;;4981341;28;20463;-65
2023/04/16 05:23:29;;;;;;;52.42;22.38;;;7.80;99.90;;;;;;4983955;28;20078;-65
2023/04/16 05:25:54;;;;;;;53.05;22.00;;;7.90;99.90;;;;;;4981415;28;20026;-65
2023/04/16 05:28:20;;;;;;;65.30;24.65;;;7.90;99.90;;;;;;4982001;28;20481;-64
2023/04/16 05:30:45;;;;;;;46.70;21.60;;;7.90;99.90;;;;;;4983082;28;20443;-66
2023/04/16 05:33:11;;;;;;;47.75;20.75;;;7.90;99.90;;;;;;4972717;28;20038;-65
2023/04/16 05:35:37;;;;;;;46.88;20.98;;;7.90;99.90;;;;;;4983008;28;20084;-65
2023/04/16 05:38:03;;;;;;;49.40;20.17;;;8.00;99.90;;;;;;4983318;28;20029;-65
2023/04/16 05:40:29;;;;;;;46.97;20.88;;;8.00;99.90;;;;;;4983463;28;20030;-65
2023/04/16 05:42:55;;;;;;;46.67;20.90;;;8.00;99.90;;;;;;4980969;28;20033;-65
2023/04/16 05:45:20;;;;;;;65.28;21.60;;;8.10;99.90;;;;;;4981646;28;20393;-65
2023/04/16 05:47:46;;;;;;;44.20;20.08;;;8.10;99.90;;;;;;4983066;28;20496;-65
2023/04/16 05:50:12;;;;;;;47.00;21.50;;;8.10;99.90;;;;;;4982741;28;20149;-65
2023/04/16 05:52:37;;;;;;;47.58;20.75;;;8.10;99.90;;;;;;4985133;28;20499;-66
2023/04/16 05:55:04;;;;;;;52.00;22.10;;;8.10;99.90;;;;;;4986872;28;20068;-65
2023/04/16 05:57:29;;;;;;;46.47;22.33;;;8.20;99.90;;;;;;4982700;28;20437;-65
2023/04/16 05:59:55;;;;;;;49.72;21.13;;;8.20;99.90;;;;;;4983037;28;20034;-65
2023/04/16 06:02:20;;;;;;;49.17;20.23;;;8.20;99.90;;;;;;4997211;28;20168;-65
2023/04/16 06:04:46;;;;;;;41.85;18.85;;;8.20;99.90;;;;;;4981425;28;20072;-65
2023/04/16 06:07:12;;;;;;;45.28;19.92;;;8.30;99.90;;;;;;4982880;28;20452;-65
2023/04/16 06:09:37;;;;;;;45.58;19.92;;;8.20;99.90;;;;;;4983368;28;20039;-65
2023/04/16 06:12:03;;;;;;;47.35;20.17;;;8.10;99.90;;;;;;4982529;28;20026;-65
2023/04/16 06:14:29;;;;;;;46.25;21.35;;;8.20;99.90;;;;;;4981668;28;20033;-65
2023/04/16 06:16:55;;;;;;;54.15;20.92;;;8.20;99.90;;;;;;4981595;28;20105;-65
2023/04/16 06:19:20;;;;;;;51.20;22.60;;;8.10;99.90;;;;;;4980527;28;20029;-65
2023/04/16 06:21:46;;;;;;;58.17;21.73;;;8.10;99.90;;;;;;4985580;28;20080;-64
2023/04/16 06:24:12;;;;;;;46.47;21.52;;;8.10;99.90;;;;;;4986680;28;20033;-64
2023/04/16 06:26:38;;;;;;;43.42;19.98;;;8.20;99.90;;;;;;4985779;28;20426;-65
2023/04/16 06:29:03;;;;;;;45.58;20.45;;;8.30;99.90;;;;;;4988199;28;20026;-64
2023/04/16 06:31:29;;;;;;;48.42;20.88;;;8.30;99.90;;;;;;4985032;28;20035;-65
2023/04/16 06:33:55;;;;;;;49.58;20.27;;;8.20;99.90;;;;;;4974007;28;20103;-64
2023/04/16 06:36:21;;;;;;;53.28;21.05;;;8.20;99.90;;;;;;4986520;28;20022;-65
2023/04/16 06:38:47;;;;;;;49.50;19.77;;;8.30;99.90;;;;;;4983739;28;20030;-64
2023/04/16 06:41:13;;;;;;;51.40;20.02;;;8.30;99.90;;;;;;4986060;28;20113;-64
2023/04/16 06:43:39;;;;;;;48.13;20.63;;;8.40;99.90;;;;;;4985567;28;20384;-65
2023/04/16 06:46:04;;;;;;;55.75;21.55;;;8.40;99.90;;;;;;4989734;28;20376;-64
2023/04/16 06:48:30;;;;;;;50.78;20.70;;;8.50;99.90;;;;;;4987777;28;20057;-66
2023/04/16 06:50:56;;;;;;;48.10;21.85;;;8.40;99.90;;;;;;4986115;28;20050;-66
2023/04/16 06:53:22;;;;;;;51.78;21.20;;;8.40;99.90;;;;;;4987488;28;20022;-67
2023/04/16 06:55:48;;;;;;;50.75;19.95;;;8.40;99.90;;;;;;4982190;28;20272;-65
2023/04/16 06:58:13;;;;;;;52.08;22.75;;;8.30;99.90;;;;;;4984840;28;20079;-64
2023/04/16 07:00:39;;;;;;;60.17;24.15;;;8.30;99.90;;;;;;4984762;28;20157;-65
2023/04/16 07:03:05;;;;;;;53.50;23.05;;;8.20;99.90;;;;;;4985567;28;20055;-65
2023/04/16 07:05:30;;;;;;;58.53;24.15;;;8.30;99.90;;;;;;4988179;28;20031;-67
2023/04/16 07:07:56;;;;;;;53.42;24.15;;;8.30;99.90;;;;;;4982059;28;20042;-67
2023/04/16 07:10:22;;;;;;;61.95;25.70;;;8.30;99.90;;;;;;4986246;28;20212;-67
2023/04/16 07:12:48;;;;;;;56.78;23.33;;;8.30;99.90;;;;;;4985323;28;20033;-65
2023/04/16 07:15:13;;;;;;;56.70;22.08;;;8.30;99.90;;;;;;4980729;28;20396;-64
2023/04/16 07:17:39;;;;;;;57.65;24.08;;;8.40;99.90;;;;;;4983950;28;20022;-65
2023/04/16 07:20:05;;;;;;;71.30;26.25;;;8.40;99.90;;;;;;4984217;28;20042;-65
2023/04/16 07:22:31;;;;;;;57.20;24.00;;;8.30;99.90;;;;;;4985019;28;20570;-64
2023/04/16 07:24:56;;;;;;;58.90;22.05;;;8.30;99.90;;;;;;4989995;28;20176;-65
2023/04/16 07:27:22;;;;;;;61.08;24.15;;;8.40;99.90;;;;;;4987012;28;20388;-65
2023/04/16 07:29:49;;;;;;;64.18;24.45;;;8.30;99.90;;;;;;4988570;28;20022;-65
2023/04/16 07:32:14;;;;;;;56.20;23.77;;;8.40;99.90;;;;;;4988545;28;20379;-64
2023/04/16 07:34:40;;;;;;;66.85;25.73;;;8.50;99.90;;;;;;4975064;28;20053;-64
2023/04/16 07:37:06;;;;;;;57.22;24.65;;;8.40;99.90;;;;;;4988394;28;20109;-65
2023/04/16 07:39:31;;;;;;;64.90;27.42;;;8.40;99.90;;;;;;4987433;28;20447;-65
2023/04/16 07:41:57;;;;;;;63.70;26.98;;;8.50;99.90;;;;;;4987164;28;20113;-64
2023/04/16 07:44:22;;;;;;;56.60;25.48;;;8.60;99.90;;;;;;4988440;28;20072;-65
2023/04/16 07:46:48;;;;;;;57.80;25.60;;;8.60;99.90;;;;;;4989078;28;20545;-65
2023/04/16 07:49:14;;;;;;;61.53;26.85;;;8.70;99.90;;;;;;4990198;28;20018;-64
2023/04/16 07:51:39;;;;;;;62.83;27.17;;;8.80;99.90;;;;;;4989286;28;20553;-64
2023/04/16 07:54:05;;;;;;;59.95;27.27;;;8.70;99.90;;;;;;4987535;28;20019;-64
2023/04/16 07:56:31;;;;;;;61.90;28.45;;;8.70;99.90;;;;;;4986965;28;20034;-64
2023/04/16 07:58:56;;;;;;;61.80;26.90;;;8.70;99.90;;;;;;4985851;28;20026;-65
2023/04/16 08:01:22;;;;;;;65.68;27.73;;;8.80;99.90;;;;;;4985197;28;20035;-65
2023/04/16 08:03:47;;;;;;;73.22;29.70;;;8.80;99.90;;;;;;4986201;28;20118;-65
2023/04/16 08:06:13;;;;;;;55.90;26.25;;;8.80;99.90;;;;;;4984743;28;20038;-65
2023/04/16 08:08:39;;;;;;;61.17;28.17;;;8.80;99.90;;;;;;4982307;28;20481;-64
2023/04/16 08:11:04;;;;;;;60.15;27.38;;;8.90;99.90;;;;;;4981465;28;20100;-64
2023/04/16 08:13:30;;;;;;;64.43;26.88;;;8.90;99.90;;;;;;4986710;28;20034;-65
2023/04/16 08:15:56;;;;;;;60.67;26.00;;;9.00;99.90;;;;;;4984347;28;20084;-65
2023/04/16 08:18:21;;;;;;;63.13;26.60;;;9.00;99.90;;;;;;4984249;28;20719;-65
2023/04/16 08:20:47;;;;;;;56.22;26.92;;;9.10;99.90;;;;;;4988888;28;20026;-65
2023/04/16 08:23:12;;;;;;;59.72;28.38;;;9.00;99.90;;;;;;4984133;28;20044;-65
2023/04/16 08:25:38;;;;;;;47.70;25.63;;;9.00;99.90;;;;;;4984486;28;20022;-65
2023/04/16 08:28:04;;;;;;;59.72;24.88;;;9.10;99.90;;;;;;4993855;28;20484;-65
2023/04/16 08:30:30;;;;;;;52.92;25.88;;;9.00;99.90;;;;;;4980517;28;20030;-65
2023/04/16 08:32:55;;;;;;;46.92;23.90;;;9.10;99.90;;;;;;4985324;28;20018;-64
2023/04/16 08:35:21;;;;;;;50.85;25.13;;;9.10;99.90;;;;;;4970379;28;20054;-64
2023/04/16 08:37:47;;;;;;;49.42;25.45;;;9.20;99.90;;;;;;4983614;28;20522;-64
2023/04/16 08:40:13;;;;;;;49.08;23.33;;;9.20;99.90;;;;;;4981540;28;20042;-64
2023/04/16 08:42:44;;;;;;;47.53;24.90;;;9.30;99.90;;;;;;4982509;28;20048;-64
2023/04/16 08:45:15;;;;;;;54.78;24.25;;;9.20;99.90;;;;;;4983092;28;20519;-65
2023/04/16 08:47:45;;;;;;;48.13;23.50;;;9.30;99.90;;;;;;4985751;28;20046;-65
2023/04/16 08:50:17;;;;;;;53.35;24.20;;;9.40;99.90;;;;;;4982625;28;20026;-65
2023/04/16 08:52:50;;;;;;;42.45;22.13;;;9.40;99.90;;;;;;4982726;28;20061;-65
2023/04/16 08:55:18;;;;;;;46.05;23.75;;;9.40;99.90;;;;;;4981069;28;20019;-65
2023/04/16 08:57:47;;;;;;;44.97;22.00;;;9.60;99.90;;;;;;4981623;28;20058;-65
2023/04/16 09:00:14;;;;;;;45.30;22.52;;;9.50;99.90;;;;;;4982178;28;20074;-65
2023/04/16 09:02:41;;;;;;;37.45;21.02;;;9.70;99.90;;;;;;4982293;28;20046;-65
2023/04/16 09:05:08;;;;;;;48.97;23.45;;;9.80;99.90;;;;;;4983228;28;20030;-65
2023/04/16 09:07:35;;;;;;;44.28;21.30;;;10.10;99.90;;;;;;4982098;28;20159;-65
2023/04/16 09:10:01;;;;;;;36.60;18.20;;;10.10;99.90;;;;;;4979811;28;20034;-65
2023/04/16 09:12:26;;;;;;;43.42;20.58;;;10.20;99.90;;;;;;4983068;28;20033;-64
2023/04/16 09:14:52;;;;;;;39.13;19.20;;;10.30;99.90;;;;;;4984362;28;20518;-65
2023/04/16 09:17:18;;;;;;;35.22;17.40;;;10.30;99.90;;;;;;4980731;28;20413;-65
2023/04/16 09:19:44;;;;;;;38.35;19.30;;;10.40;99.90;;;;;;4982872;28;20042;-65
2023/04/16 09:22:10;;;;;;;37.33;18.52;;;10.30;99.90;;;;;;4984170;28;20330;-65
2023/04/16 09:24:37;;;;;;;35.30;18.90;;;10.30;99.90;;;;;;4986203;28;20030;-65
2023/04/16 09:27:03;;;;;;;38.35;19.35;;;10.30;99.90;;;;;;4987871;28;20095;-65
2023/04/16 09:29:36;;;;;;;39.08;19.25;;;10.30;99.90;;;;;;4988972;28;20072;-65
2023/04/16 09:32:07;;;;;;;42.85;18.83;;;10.40;99.90;;;;;;4980430;28;20072;-65
2023/04/16 09:34:34;;;;;;;35.95;18.95;;;10.30;99.90;;;;;;4987592;28;20063;-66
2023/04/16 09:37:18;;;;;;;40.13;19.10;;;10.50;99.90;;;;;;4978014;28;20626;-64
2023/04/16 09:39:45;;;;;;;34.08;18.02;;;10.60;99.90;;;;;;4988820;28;20034;-64
2023/04/16 09:42:11;;;;;;;38.38;17.50;;;10.70;99.90;;;;;;4987317;28;20022;-65
2023/04/16 09:44:38;;;;;;;34.75;18.48;;;10.60;99.90;;;;;;4988651;28;20034;-65
2023/04/16 09:47:08;;;;;;;32.97;17.48;;;10.60;99.90;;;;;;4988187;28;20491;-65
2023/04/16 09:49:39;;;;;;;31.35;17.60;;;10.60;99.90;;;;;;4988198;28;20106;-66
2023/04/16 09:52:19;;;;;;;36.15;19.15;;;10.60;99.90;;;;;;4987231;28;20018;-65
2023/04/16 09:54:52;;;;;;;29.45;17.08;;;10.60;99.90;;;;;;4981962;28;20044;-65
2023/04/16 09:57:22;;;;;;;39.08;18.23;;;10.70;99.90;;;;;;4980159;28;20022;-65
2023/04/16 09:59:59;;;;;;;28.20;16.33;;;10.80;99.90;;;;;;4983449;28;20091;-65
2023/04/16 10:02:29;;;;;;;32.20;16.27;;;10.90;99.90;;;;;;4992824;28;20479;-65
2023/04/16 10:04:56;;;;;;;33.22;18.02;;;11.00;99.90;;;;;;4984183;28;20543;-65
2023/04/16 10:07:22;;;;;;;33.85;17.63;;;11.00;99.90;;;;;;4983738;28;20065;-65
2023/04/16 10:09:49;;;;;;;28.70;17.38;;;10.90;99.90;;;;;;4980846;28;20027;-65
2023/04/16 10:12:15;;;;;;;38.60;17.88;;;10.90;99.90;;;;;;4982036;28;20023;-65
2023/04/16 10:14:41;;;;;;;26.83;16.13;;;10.90;99.90;;;;;;4981169;28;20518;-65
2023/04/16 10:17:10;;;;;;;36.03;17.05;;;11.00;99.90;;;;;;4988814;28;20034;-65
2023/04/16 10:19:36;;;;;;;34.00;18.15;;;11.10;99.90;;;;;;4993274;28;20034;-65
2023/04/16 10:22:02;;;;;;;37.20;15.75;;;11.20;99.90;;;;;;4987737;28;20026;-65
2023/04/16 10:24:30;;;;;;;25.92;15.27;;;11.30;99.90;;;;;;4986410;28;20035;-65
2023/04/16 10:26:56;;;;;;;30.38;16.05;;;11.30;99.90;;;;;;4983978;28;20031;-65
2023/04/16 10:29:23;;;;;;;32.08;16.48;;;11.40;99.90;;;;;;4981978;28;20042;-65
2023/04/16 10:31:50;;;;;;;28.55;15.60;;;11.30;99.90;;;;;;4994659;28;20488;-65
2023/04/16 10:34:17;;;;;;;29.25;16.05;;;11.40;99.90;;;;;;4986260;28;20123;-66
2023/04/16 10:36:48;;;;;;;28.67;13.65;;;11.70;99.90;;;;;;4970721;28;20040;-65
2023/04/16 10:39:17;;;;;;;28.60;14.95;;;11.90;99.90;;;;;;4983346;28;20026;-65
2023/04/16 10:41:44;;;;;;;30.00;16.15;;;11.90;99.90;;;;;;4977600;28;20371;-65
2023/04/16 10:44:09;;;;;;;28.65;15.48;;;11.90;99.90;;;;;;4982439;28;20027;-65
2023/04/16 10:46:40;;;;;;;25.77;14.98;;;11.90;99.90;;;;;;4982281;28;20042;-65
2023/04/16 10:49:18;;;;;;;28.13;14.63;;;11.80;99.90;;;;;;4981507;28;20455;-65
2023/04/16 10:52:06;;;;;;;27.80;16.35;;;11.70;99.90;;;;;;4983841;28;20058;-65
2023/04/16 10:54:34;;;;;;;25.23;14.05;;;11.70;99.90;;;;;;4987511;28;20037;-65
2023/04/16 10:57:08;;;;;;;32.00;15.98;;;11.40;99.90;;;;;;4980353;28;20026;-65
2023/04/16 10:59:38;;;;;;;31.75;15.95;;;11.60;99.90;;;;;;4975212;28;20038;-65
2023/04/16 11:02:11;;;;;;;27.95;15.65;;;11.50;99.90;;;;;;4961215;28;20481;-65
2023/04/16 11:04:38;;;;;;;26.50;15.00;;;11.60;99.90;;;;;;4962981;28;20035;-65
2023/04/16 11:07:10;;;;;;;22.38;12.80;;;11.60;99.90;;;;;;4959797;28;20027;-66
2023/04/16 11:10:04;;;;;;;26.95;13.98;;;11.70;99.90;;;;;;4948152;28;20054;-65
2023/04/16 11:12:38;;;;;;;23.42;12.80;;;11.80;99.90;;;;;;4959593;28;20122;-65
2023/04/16 11:15:09;;;;;;;25.25;12.48;;;12.10;99.90;;;;;;4963106;28;20027;-65
2023/04/16 11:17:43;;;;;;;27.13;13.45;;;12.00;99.90;;;;;;4964118;28;20019;-65
2023/04/16 11:20:14;;;;;;;26.42;14.32;;;11.90;99.90;;;;;;4966104;28;20027;-65
2023/04/16 11:22:41;;;;;;;21.92;13.65;;;11.70;99.90;;;;;;4969076;28;20027;-65
2023/04/16 11:25:07;;;;;;;25.02;13.82;;;11.50;99.90;;;;;;4970460;28;20031;-64
2023/04/16 11:27:33;;;;;;;26.73;14.43;;;11.60;99.90;;;;;;4959560;28;20462;-65
2023/04/16 11:30:01;;;;;;;25.75;14.75;;;11.50;99.90;;;;;;4970120;28;20027;-65
2023/04/16 11:32:27;;;;;;;28.92;15.48;;;11.40;99.90;;;;;;4963909;28;20030;-64
2023/04/16 11:34:52;;;;;;;22.35;12.93;;;11.50;99.90;;;;;;4970318;28;20027;-64
2023/04/16 11:37:34;;;;;;;24.88;14.20;;;11.70;99.90;;;;;;4958281;28;20092;-65
2023/04/16 11:40:00;;;;;;;24.73;12.23;;;11.90;99.90;;;;;;4970795;28;20022;-65
2023/04/16 11:42:27;;;;;;;20.55;11.45;;;12.30;99.90;;;;;;4966993;28;20133;-65
2023/04/16 11:44:59;;;;;;;24.73;12.07;;;12.70;99.90;;;;;;4966831;28;20484;-65
2023/04/16 11:47:25;;;;;;;20.35;11.98;;;12.90;99.90;;;;;;4968990;28;20045;-65
2023/04/16 11:49:52;;;;;;;17.48;10.18;;;13.20;99.90;;;;;;4968703;28;20044;-65
2023/04/16 11:52:28;;;;;;;18.50;11.07;;;13.00;99.90;;;;;;4964542;28;20494;-65
2023/04/16 11:54:55;;;;;;;16.95;9.85;;;13.20;99.90;;;;;;4968142;28;20023;-65
2023/04/16 11:57:38;;;;;;;17.77;11.20;;;13.30;99.90;;;;;;4967913;28;20038;-65
2023/04/16 12:00:08;;;;;;;18.95;11.23;;;13.70;99.90;;;;;;4967641;28;20031;-65
2023/04/16 12:02:51;;;;;;;16.33;10.18;;;13.90;99.90;;;;;;4968722;28;20041;-65
2023/04/16 12:05:37;;;;;;;17.00;9.80;;;13.90;99.90;;;;;;4969110;28;20096;-64
2023/04/16 12:08:07;;;;;;;18.38;10.20;;;13.70;99.90;;;;;;4954996;28;21780;-65
2023/04/16 12:10:36;;;;;;;18.88;11.70;;;13.60;99.90;;;;;;4961647;28;20037;-65
2023/04/16 12:13:12;;;;;;;21.17;11.15;;;13.60;99.90;;;;;;4965362;28;20031;-65
2023/04/16 12:15:52;;;;;;;15.13;9.45;;;13.80;99.90;;;;;;4965446;28;20669;-65
2023/04/16 12:18:21;;;;;;;16.55;10.68;;;13.80;99.90;;;;;;4963278;28;20026;-65
2023/04/16 12:20:48;;;;;;;20.88;10.70;;;13.80;99.90;;;;;;4965772;28;20031;-65
2023/04/16 12:23:27;;;;;;;18.55;10.25;;;13.60;99.90;;;;;;4971868;28;20023;-65
2023/04/16 12:25:53;;;;;;;19.42;10.82;;;13.50;99.90;;;;;;4966212;28;20027;-65
2023/04/16 12:28:33;;;;;;;16.15;9.30;;;13.40;99.90;;;;;;4970947;28;20114;-65
2023/04/16 12:30:58;;;;;;;16.85;10.20;;;13.40;99.90;;;;;;4966127;28;20051;-65
2023/04/16 12:33:24;;;;;;;16.77;10.60;;;13.80;99.90;;;;;;4968344;28;20061;-65
2023/04/16 12:35:50;;;;;;;17.00;10.55;;;14.30;99.90;;;;;;4968470;28;20025;-65